createdAt,value
2018-04-26T00:00:17.782Z,0.90
2018-04-26T00:02:46.891Z,1.00
2018-04-26T00:05:15.815Z,0.88
2018-04-26T00:07:44.694Z,0.90
2018-04-26T00:10:13.587Z,1.00
2018-04-26T00:12:42.471Z,0.85
2018-04-26T00:15:11.408Z,0.88
2018-04-26T00:17:40.310Z,0.93
2018-04-26T00:20:09.203Z,0.80
2018-04-26T00:22:38.182Z,0.85
2018-04-26T00:25:07.073Z,0.70
2018-04-26T00:27:35.956Z,0.82
2018-04-26T00:30:05.030Z,0.80
2018-04-26T00:32:33.994Z,1.08
2018-04-26T00:35:02.883Z,0.82
2018-04-26T00:37:31.874Z,0.70
2018-04-26T00:40:00.755Z,0.80
2018-04-26T00:42:29.639Z,1.25
2018-04-26T00:44:58.519Z,0.82
2018-04-26T00:47:27.402Z,1.10
2018-04-26T00:49:56.402Z,0.80
2018-04-26T00:52:25.312Z,0.90
2018-04-26T00:54:54.326Z,1.08
2018-04-26T00:57:23.207Z,0.80
2018-04-26T00:59:52.119Z,0.70
2018-04-26T01:02:21.247Z,0.90
2018-04-26T01:04:50.220Z,0.93
2018-04-26T01:07:19.107Z,0.88
2018-04-26T01:09:48.206Z,1.10
2018-04-26T01:12:17.105Z,0.70
2018-04-26T01:14:46.056Z,1.00
2018-04-26T01:17:15.356Z,0.85
2018-04-26T01:19:44.248Z,0.80
2018-04-26T01:22:13.136Z,0.90
2018-04-26T01:24:42.023Z,0.80
2018-04-26T01:27:10.930Z,1.00
2018-04-26T01:29:39.846Z,0.73
2018-04-26T01:32:08.734Z,0.90
2018-04-26T01:34:37.618Z,0.80
2018-04-26T01:37:12.343Z,1.00
2018-04-26T01:39:41.235Z,0.80
2018-04-26T01:42:10.134Z,0.90
2018-04-26T01:44:39.018Z,1.00
2018-04-26T01:47:08.104Z,0.98
2018-04-26T01:49:36.996Z,0.73
2018-04-26T01:52:05.878Z,1.23
2018-04-26T01:54:34.951Z,0.95
2018-04-26T01:57:03.835Z,0.90
2018-04-26T01:59:32.715Z,1.00
2018-04-26T02:02:01.735Z,1.52
2018-04-26T02:04:30.626Z,0.98
2018-04-26T02:06:59.512Z,1.08
2018-04-26T02:09:28.420Z,1.10
2018-04-26T02:11:57.299Z,0.80
2018-04-26T02:14:26.242Z,0.73
2018-04-26T02:16:55.123Z,0.98
2018-04-26T02:19:24.010Z,0.90
2018-04-26T02:21:52.933Z,0.82
2018-04-26T02:24:21.859Z,0.80
2018-04-26T02:26:50.752Z,1.00
2018-04-26T02:29:19.640Z,0.88
2018-04-26T02:31:48.527Z,0.90
2018-04-26T02:34:17.455Z,0.90
2018-04-26T02:36:46.346Z,0.80
2018-04-26T02:39:15.238Z,0.98
2018-04-26T02:41:44.167Z,0.80
2018-04-26T02:44:13.063Z,0.80
2018-04-26T02:46:42.176Z,0.80
2018-04-26T02:49:11.068Z,0.90
2018-04-26T02:51:40.000Z,0.70
2018-04-26T02:54:08.887Z,0.60
2018-04-26T02:56:37.785Z,0.77
2018-04-26T02:59:06.727Z,1.12
2018-04-26T03:01:35.624Z,0.80
2018-04-26T03:04:04.555Z,0.88
2018-04-26T03:06:33.499Z,0.98
2018-04-26T03:09:02.391Z,1.00
2018-04-26T03:11:31.283Z,0.80
2018-04-26T03:14:00.214Z,1.00
2018-04-26T03:16:29.112Z,0.80
2018-04-26T03:18:58.148Z,0.95
2018-04-26T03:21:27.039Z,1.60
2018-04-26T03:23:55.923Z,0.75
2018-04-26T03:26:24.812Z,1.00
2018-04-26T03:28:53.707Z,0.82
2018-04-26T03:31:22.624Z,0.95
2018-04-26T03:33:51.573Z,0.80
2018-04-26T03:36:20.461Z,0.80
2018-04-26T03:38:49.359Z,0.80
2018-04-26T03:41:18.247Z,0.90
2018-04-26T03:43:47.191Z,0.80
2018-04-26T03:46:16.083Z,0.90
2018-04-26T03:48:44.971Z,0.85
2018-04-26T03:51:13.947Z,1.08
2018-04-26T03:53:42.843Z,1.30
2018-04-26T03:56:11.979Z,0.68
2018-04-26T03:58:40.871Z,1.08
2018-04-26T04:01:24.872Z,0.75
2018-04-26T04:04:08.638Z,0.90
2018-04-26T04:06:37.803Z,0.90
2018-04-26T04:09:06.693Z,0.90
2018-04-26T04:11:35.655Z,0.60
2018-04-26T04:14:04.708Z,1.25
2018-04-26T04:16:33.594Z,0.90
2018-04-26T04:19:02.544Z,0.90
2018-04-26T04:21:31.762Z,0.95
2018-04-26T04:24:00.654Z,0.98
2018-04-26T04:26:29.597Z,0.90
2018-04-26T04:28:58.607Z,0.80
2018-04-26T04:31:27.575Z,1.20
2018-04-26T04:33:57.582Z,1.10
2018-04-26T04:36:26.589Z,1.05
2018-04-26T04:38:55.501Z,0.98
2018-04-26T04:41:24.472Z,1.20
2018-04-26T04:43:53.370Z,1.40
2018-04-26T04:46:22.261Z,1.20
2018-04-26T04:48:51.178Z,1.12
2018-04-26T04:51:20.067Z,1.10
2018-04-26T04:53:49.182Z,1.02
2018-04-26T04:56:18.075Z,0.80
2018-04-26T04:58:46.976Z,1.30
2018-04-26T05:01:15.960Z,1.25
2018-04-26T05:03:44.854Z,1.35
2018-04-26T05:06:13.746Z,1.35
2018-04-26T05:08:42.635Z,1.02
2018-04-26T05:11:11.530Z,1.33
2018-04-26T05:13:40.555Z,0.98
2018-04-26T05:16:09.452Z,1.00
2018-04-26T05:18:38.366Z,1.50
2018-04-26T05:21:07.276Z,1.48
2018-04-26T05:23:36.166Z,1.40
2018-04-26T05:26:05.078Z,1.35
2018-04-26T05:28:33.963Z,0.95
2018-04-26T05:31:02.851Z,0.88
2018-04-26T05:33:31.741Z,1.17
2018-04-26T05:36:00.623Z,1.17
2018-04-26T05:38:29.535Z,1.42
2018-04-26T05:40:58.472Z,1.52
2018-04-26T05:43:27.354Z,1.80
2018-04-26T05:45:56.261Z,1.12
2018-04-26T05:48:25.197Z,1.45
2018-04-26T05:50:54.144Z,1.40
2018-04-26T05:53:23.055Z,1.75
2018-04-26T05:55:51.987Z,1.20
2018-04-26T05:58:20.959Z,1.90
2018-04-26T06:00:49.867Z,1.70
2018-04-26T06:03:19.183Z,1.37
2018-04-26T06:05:48.073Z,1.60
2018-04-26T06:08:16.963Z,1.40
2018-04-26T06:10:45.855Z,1.75
2018-04-26T06:13:14.748Z,1.70
2018-04-26T06:15:43.877Z,1.70
2018-04-26T06:18:12.772Z,2.20
2018-04-26T06:20:41.680Z,2.20
2018-04-26T06:23:10.575Z,1.87
2018-04-26T06:25:39.515Z,1.98
2018-04-26T06:28:08.414Z,3.10
2018-04-26T06:30:37.299Z,2.05
2018-04-26T06:33:06.199Z,1.60
2018-04-26T06:35:35.166Z,2.12
2018-04-26T06:38:04.097Z,1.90
2018-04-26T06:40:33.189Z,1.95
2018-04-26T06:43:02.106Z,1.77
2018-04-26T06:45:31.107Z,1.77
2018-04-26T06:48:00.017Z,2.30
2018-04-26T06:50:28.907Z,1.90
2018-04-26T06:52:57.819Z,2.42
2018-04-26T06:55:26.711Z,2.20
2018-04-26T06:57:55.858Z,2.85
2018-04-26T07:00:24.754Z,2.05
2018-04-26T07:02:53.674Z,2.50
2018-04-26T07:05:22.582Z,2.50
2018-04-26T07:07:51.473Z,2.65
2018-04-26T07:10:20.475Z,2.22
2018-04-26T07:12:49.371Z,3.67
2018-04-26T07:15:18.254Z,2.35
2018-04-26T07:17:47.287Z,2.47
2018-04-26T07:20:16.168Z,2.55
2018-04-26T07:22:45.358Z,3.15
2018-04-26T07:25:14.243Z,2.15
2018-04-26T07:27:43.144Z,2.95
2018-04-26T07:30:12.034Z,2.55
2018-04-26T07:32:40.935Z,2.25
2018-04-26T07:35:09.875Z,2.03
2018-04-26T07:37:38.786Z,2.30
2018-04-26T07:40:07.720Z,3.22
2018-04-26T07:42:36.626Z,2.83
2018-04-26T07:45:05.524Z,2.87
2018-04-26T07:47:34.603Z,2.35
2018-04-26T07:50:03.499Z,2.87
2018-04-26T07:52:32.639Z,2.53
2018-04-26T07:55:01.527Z,2.03
2018-04-26T07:57:30.420Z,2.97
2018-04-26T07:59:59.506Z,2.22
2018-04-26T08:02:28.399Z,2.60
2018-04-26T08:04:57.283Z,2.42
2018-04-26T08:07:26.175Z,2.22
2018-04-26T08:09:55.074Z,2.53
2018-04-26T08:12:24.190Z,2.20
2018-04-26T08:14:53.107Z,2.05
2018-04-26T08:17:21.995Z,2.30
2018-04-26T08:19:50.885Z,2.85
2018-04-26T08:22:19.780Z,2.60
2018-04-26T08:24:48.714Z,2.00
2018-04-26T08:27:17.720Z,2.85
2018-04-26T08:29:46.618Z,2.30
2018-04-26T08:32:15.534Z,2.30
2018-04-26T08:34:44.440Z,2.90
2018-04-26T08:37:13.652Z,2.85
2018-04-26T08:39:42.631Z,2.97
2018-04-26T08:42:11.554Z,2.65
2018-04-26T08:44:40.458Z,2.20
2018-04-26T08:47:09.353Z,1.87
2018-04-26T08:49:38.484Z,2.45
2018-04-26T08:52:07.378Z,2.60
2018-04-26T08:54:36.267Z,2.60
2018-04-26T08:57:05.155Z,2.10
2018-04-26T08:59:34.066Z,3.03
2018-04-26T09:02:03.163Z,2.70
2018-04-26T09:04:32.082Z,2.55
2018-04-26T09:07:01.012Z,2.37
2018-04-26T09:09:30.242Z,2.30
2018-04-26T09:11:59.526Z,2.15
2018-04-26T09:14:29.285Z,2.60
2018-04-26T09:16:58.213Z,1.90
2018-04-26T09:19:27.109Z,2.35
2018-04-26T09:21:56.042Z,2.87
2018-04-26T09:24:25.296Z,2.78
2018-04-26T09:26:54.163Z,2.20
2018-04-26T09:29:23.057Z,2.28
2018-04-26T09:31:51.949Z,2.40
2018-04-26T09:34:20.842Z,2.58
2018-04-26T09:36:49.798Z,2.78
2018-04-26T09:39:18.690Z,3.12
2018-04-26T09:41:47.593Z,2.47
2018-04-26T09:44:16.491Z,2.62
2018-04-26T09:46:45.458Z,3.03
2018-04-26T09:49:14.445Z,2.00
2018-04-26T09:51:43.398Z,2.80
2018-04-26T09:54:12.345Z,2.10
2018-04-26T09:56:41.241Z,2.60
2018-04-26T09:59:10.144Z,1.80
2018-04-26T10:01:39.159Z,1.90
2018-04-26T10:04:13.774Z,1.98
2018-04-26T10:06:48.506Z,1.52
2018-04-26T10:09:17.390Z,1.90
2018-04-26T10:11:46.276Z,2.17
2018-04-26T10:14:15.184Z,2.22
2018-04-26T10:16:44.071Z,1.85
2018-04-26T10:19:12.974Z,2.12
2018-04-26T10:21:41.921Z,2.22
2018-04-26T10:24:10.831Z,2.62
2018-04-26T10:26:39.721Z,1.33
2018-04-26T10:29:08.618Z,1.73
2018-04-26T10:31:37.511Z,2.20
2018-04-26T10:34:06.730Z,2.20
2018-04-26T10:36:35.630Z,1.27
2018-04-26T10:39:04.524Z,1.85
2018-04-26T10:41:33.414Z,1.58
2018-04-26T10:44:02.303Z,1.52
2018-04-26T10:46:31.220Z,1.37
2018-04-26T10:49:00.111Z,1.48
2018-04-26T10:51:29.002Z,1.75
2018-04-26T10:53:57.903Z,2.00
2018-04-26T10:56:26.786Z,1.73
2018-04-26T10:58:55.729Z,2.35
2018-04-26T11:01:24.621Z,1.90
2018-04-26T11:03:53.519Z,1.30
2018-04-26T11:06:22.407Z,1.37
2018-04-26T11:08:51.420Z,1.02
2018-04-26T11:11:20.340Z,1.90
2018-04-26T11:13:49.233Z,2.10
2018-04-26T11:16:18.135Z,1.40
2018-04-26T11:18:47.034Z,1.60
2018-04-26T11:21:15.955Z,1.60
2018-04-26T11:23:45.031Z,1.70
2018-04-26T11:26:13.927Z,2.10
2018-04-26T11:28:42.812Z,1.35
2018-04-26T11:31:11.707Z,1.55
2018-04-26T11:33:40.791Z,1.60
2018-04-26T11:36:09.841Z,1.58
2018-04-26T11:38:38.691Z,1.62
2018-04-26T11:41:07.584Z,1.60
2018-04-26T11:43:36.727Z,1.65
2018-04-26T11:46:05.634Z,1.20
2018-04-26T11:48:34.900Z,1.25
2018-04-26T11:51:03.809Z,1.45
2018-04-26T11:53:32.715Z,1.27
2018-04-26T11:56:01.934Z,1.70
2018-04-26T11:58:30.844Z,1.20
2018-04-26T12:00:59.737Z,1.60
2018-04-26T12:03:28.619Z,1.15
2018-04-26T12:05:57.520Z,1.67
2018-04-26T12:08:26.677Z,1.20
2018-04-26T12:10:55.675Z,1.08
2018-04-26T12:13:24.591Z,1.80
2018-04-26T12:15:53.703Z,1.65
2018-04-26T12:18:22.659Z,1.50
2018-04-26T12:20:51.581Z,1.37
2018-04-26T12:23:20.547Z,1.30
2018-04-26T12:25:49.450Z,1.00
2018-04-26T12:28:18.347Z,1.30
2018-04-26T12:30:47.243Z,0.80
2018-04-26T12:33:16.383Z,1.23
2018-04-26T12:35:45.303Z,1.20
2018-04-26T12:38:14.207Z,1.10
2018-04-26T12:40:43.450Z,0.90
2018-04-26T12:43:12.371Z,0.95
2018-04-26T12:45:41.255Z,0.60
2018-04-26T12:48:10.176Z,0.80
2018-04-26T12:50:39.096Z,1.08
2018-04-26T12:53:08.346Z,0.95
2018-04-26T12:55:37.230Z,0.47
2018-04-26T12:58:06.232Z,0.80
2018-04-26T13:00:35.072Z,0.68
2018-04-26T13:03:03.959Z,1.05
2018-04-26T13:05:33.164Z,0.98
2018-04-26T13:08:02.125Z,0.85
2018-04-26T13:10:30.997Z,0.85
2018-04-26T13:12:59.890Z,0.95
2018-04-26T13:15:28.792Z,0.60
2018-04-26T13:17:57.836Z,0.80
2018-04-26T13:20:26.719Z,0.52
2018-04-26T13:22:55.607Z,0.77
2018-04-26T13:25:24.551Z,0.77
2018-04-26T13:27:53.552Z,0.60
2018-04-26T13:30:22.556Z,1.12
2018-04-26T13:32:51.438Z,0.77
2018-04-26T13:35:20.334Z,1.10
2018-04-26T13:37:49.219Z,0.90
2018-04-26T13:40:18.110Z,0.85
2018-04-26T13:42:46.998Z,0.90
2018-04-26T13:45:16.259Z,1.10
2018-04-26T13:47:45.190Z,0.90
2018-04-26T13:50:14.086Z,0.93
2018-04-26T13:52:43.002Z,1.05
2018-04-26T13:55:11.998Z,0.80
2018-04-26T13:57:41.065Z,1.10
2018-04-26T14:00:10.071Z,0.70
2018-04-26T14:02:39.291Z,0.70
2018-04-26T14:05:08.179Z,0.98
2018-04-26T14:07:37.479Z,0.75
2018-04-26T14:10:06.375Z,0.70
2018-04-26T14:12:35.258Z,1.77
2018-04-26T14:15:04.151Z,0.68
2018-04-26T14:17:33.090Z,1.02
2018-04-26T14:20:02.013Z,0.60
2018-04-26T14:22:30.898Z,0.70
2018-04-26T14:24:59.778Z,0.80
2018-04-26T14:27:28.671Z,0.57
2018-04-26T14:29:57.586Z,0.60
2018-04-26T14:32:26.524Z,1.20
2018-04-26T14:34:55.415Z,0.60
2018-04-26T14:37:24.424Z,0.75
2018-04-26T14:39:53.225Z,0.80
2018-04-26T14:42:22.194Z,0.93
2018-04-26T14:44:51.128Z,0.70
2018-04-26T14:47:20.011Z,1.05
2018-04-26T14:49:48.911Z,0.68
2018-04-26T14:52:17.835Z,2.67
2018-04-26T14:54:46.718Z,0.57
2018-04-26T14:57:15.615Z,0.70
2018-04-26T14:59:44.503Z,0.80
2018-04-26T15:02:13.490Z,0.60
2018-04-26T15:04:42.414Z,0.80
2018-04-26T15:07:11.302Z,1.15
2018-04-26T15:09:40.199Z,0.98
2018-04-26T15:12:09.128Z,0.90
2018-04-26T15:14:38.024Z,0.95
2018-04-26T15:17:06.941Z,0.60
2018-04-26T15:19:35.829Z,0.95
2018-04-26T15:22:04.715Z,0.70
2018-04-26T15:24:33.674Z,0.98
2018-04-26T15:27:02.597Z,0.80
2018-04-26T15:29:31.506Z,1.15
2018-04-26T15:32:00.476Z,0.90
2018-04-26T15:34:29.303Z,1.10
2018-04-26T15:36:58.235Z,1.40
2018-04-26T15:39:27.122Z,0.60
2018-04-26T15:41:56.013Z,0.80
2018-04-26T15:44:25.003Z,0.90
2018-04-26T15:46:53.834Z,0.90
2018-04-26T15:49:22.777Z,1.00
2018-04-26T15:51:51.703Z,1.10
2018-04-26T15:54:26.851Z,1.00
2018-04-26T15:57:01.535Z,0.98
2018-04-26T15:59:36.313Z,0.73
2018-04-26T16:02:31.003Z,0.75
2018-04-26T16:05:27.029Z,0.80
2018-04-26T16:08:07.459Z,1.20
2018-04-26T16:10:48.390Z,1.37
2018-04-26T16:13:40.922Z,0.80
2018-04-26T16:16:21.552Z,0.70
2018-04-26T16:18:56.258Z,1.10
2018-04-26T16:21:33.985Z,1.05
2018-04-26T16:24:11.365Z,0.95
2018-04-26T16:26:52.419Z,1.17
2018-04-26T16:29:32.790Z,0.85
2018-04-26T16:32:13.507Z,1.62
2018-04-26T16:34:49.047Z,1.15
2018-04-26T16:37:29.728Z,0.80
2018-04-26T16:39:58.614Z,1.10
2018-04-26T16:42:27.538Z,0.80
2018-04-26T16:44:56.457Z,1.27
2018-04-26T16:47:25.369Z,1.00
2018-04-26T16:49:54.290Z,1.02
2018-04-26T16:52:23.465Z,1.10
2018-04-26T16:54:52.355Z,1.12
2018-04-26T16:57:21.242Z,1.00
2018-04-26T16:59:50.258Z,0.90
2018-04-26T17:02:19.163Z,1.10
2018-04-26T17:04:48.194Z,0.93
2018-04-26T17:07:17.203Z,0.90
2018-04-26T17:09:46.090Z,0.90
2018-04-26T17:12:14.991Z,1.33
2018-04-26T17:14:43.903Z,0.85
2018-04-26T17:17:12.802Z,2.37
2018-04-26T17:19:41.694Z,1.05
2018-04-26T17:22:10.591Z,1.00
2018-04-26T17:24:39.483Z,1.00
2018-04-26T17:27:08.739Z,2.33
2018-04-26T17:29:37.627Z,1.40
2018-04-26T17:32:06.523Z,1.27
2018-04-26T17:34:35.639Z,1.45
2018-04-26T17:37:04.529Z,1.20
2018-04-26T17:39:33.423Z,0.80
2018-04-26T17:42:02.431Z,0.80
2018-04-26T17:44:31.314Z,1.05
2018-04-26T17:47:00.198Z,0.80
2018-04-26T17:49:29.143Z,0.85
2018-04-26T17:51:58.035Z,1.02
2018-04-26T17:54:27.022Z,0.90
2018-04-26T17:56:55.911Z,1.12
2018-04-26T17:59:24.798Z,1.52
2018-04-26T18:01:53.739Z,2.22
2018-04-26T18:04:22.619Z,2.12
2018-04-26T18:06:51.503Z,2.75
2018-04-26T18:09:20.511Z,3.00
2018-04-26T18:11:49.431Z,2.35
2018-04-26T18:14:18.326Z,2.45
2018-04-26T18:16:47.264Z,1.30
2018-04-26T18:19:16.159Z,2.03
2018-04-26T18:21:45.044Z,1.90
2018-04-26T18:24:14.059Z,1.17
2018-04-26T18:26:42.964Z,1.17
2018-04-26T18:29:11.866Z,1.10
2018-04-26T18:31:40.788Z,1.20
2018-04-26T18:34:09.676Z,1.20
2018-04-26T18:36:38.572Z,0.70
2018-04-26T18:39:07.466Z,0.98
2018-04-26T18:41:36.353Z,1.00
2018-04-26T18:44:05.447Z,1.35
2018-04-26T18:46:34.337Z,0.75
2018-04-26T18:49:03.231Z,0.90
2018-04-26T18:51:32.123Z,1.00
2018-04-26T18:54:01.041Z,0.98
2018-04-26T18:56:29.975Z,1.00
2018-04-26T18:58:58.959Z,0.90
2018-04-26T19:01:27.849Z,0.93
2018-04-26T19:03:56.738Z,1.05
2018-04-26T19:06:25.630Z,1.10
2018-04-26T19:08:54.572Z,0.90
2018-04-26T19:11:23.459Z,0.82
2018-04-26T19:13:52.350Z,1.00
2018-04-26T19:16:21.237Z,0.70
2018-04-26T19:18:50.123Z,0.70
2018-04-26T19:21:19.409Z,0.80
2018-04-26T19:23:48.315Z,1.90
2018-04-26T19:26:17.223Z,1.00
2018-04-26T19:28:46.143Z,0.80
2018-04-26T19:31:15.196Z,0.80
2018-04-26T19:33:44.431Z,1.35
2018-04-26T19:36:13.340Z,0.70
2018-04-26T19:38:45.235Z,0.70
2018-04-26T19:41:14.427Z,1.10
2018-04-26T19:43:43.310Z,1.00
2018-04-26T19:46:12.203Z,1.27
2018-04-26T19:48:41.094Z,1.00
2018-04-26T19:51:09.982Z,0.70
2018-04-26T19:53:38.895Z,1.58
2018-04-26T19:56:07.782Z,1.10
2018-04-26T19:58:36.675Z,1.30
2018-04-26T20:01:05.565Z,1.00
2018-04-26T20:03:34.455Z,0.90
2018-04-26T20:06:03.398Z,0.80
2018-04-26T20:08:32.291Z,1.15
2018-04-26T20:11:01.174Z,2.25
2018-04-26T20:13:30.072Z,2.50
2018-04-26T20:15:59.030Z,2.10
2018-04-26T20:18:28.002Z,2.70
2018-04-26T20:20:56.918Z,2.60
2018-04-26T20:23:25.802Z,1.80
2018-04-26T20:25:54.691Z,1.85
2018-04-26T20:28:23.731Z,1.30
2018-04-26T20:30:52.798Z,1.85
2018-04-26T20:33:21.685Z,1.73
2018-04-26T20:35:50.583Z,1.00
2018-04-26T20:38:19.467Z,0.88
2018-04-26T20:40:48.355Z,1.17
2018-04-26T20:43:17.455Z,1.90
2018-04-26T20:45:46.338Z,1.67
2018-04-26T20:48:21.415Z,1.40
2018-04-26T20:50:50.563Z,1.17
2018-04-26T20:53:19.447Z,1.35
2018-04-26T20:55:48.334Z,1.80
2018-04-26T20:58:17.220Z,1.00
2018-04-26T21:00:46.447Z,1.00
2018-04-26T21:03:15.408Z,0.90
2018-04-26T21:05:44.298Z,1.20
2018-04-26T21:08:13.207Z,1.00
2018-04-26T21:10:42.090Z,0.90
2018-04-26T21:13:11.330Z,1.27
2018-04-26T21:15:40.218Z,1.25
2018-04-26T21:18:09.098Z,0.90
2018-04-26T21:20:37.995Z,1.00
2018-04-26T21:23:06.899Z,0.90
2018-04-26T21:25:35.821Z,0.80
2018-04-26T21:28:04.710Z,0.93
2018-04-26T21:30:33.599Z,0.90
2018-04-26T21:33:02.482Z,1.00
2018-04-26T21:35:31.414Z,0.98
2018-04-26T21:38:00.331Z,0.90
2018-04-26T21:40:29.217Z,1.48
2018-04-26T21:42:58.158Z,0.88
2018-04-26T21:45:27.075Z,0.80
2018-04-26T21:47:55.964Z,1.10
2018-04-26T21:50:30.827Z,1.17
2018-04-26T21:53:05.600Z,0.90
2018-04-26T21:55:40.474Z,1.37
2018-04-26T21:58:15.146Z,1.17
2018-04-26T22:00:50.135Z,1.10
2018-04-26T22:03:25.207Z,0.90
2018-04-26T22:05:54.128Z,1.15
2018-04-26T22:08:23.018Z,0.90
2018-04-26T22:10:51.898Z,1.02
2018-04-26T22:13:21.199Z,1.00
2018-04-26T22:15:50.114Z,0.90
2018-04-26T22:18:19.003Z,0.88
2018-04-26T22:20:47.887Z,1.10
2018-04-26T22:23:16.780Z,0.88
2018-04-26T22:25:45.698Z,0.85
2018-04-26T22:28:14.715Z,1.30
2018-04-26T22:30:43.605Z,0.75
2018-04-26T22:33:12.514Z,0.90
2018-04-26T22:35:41.403Z,0.98
2018-04-26T22:38:10.334Z,0.90
2018-04-26T22:40:39.224Z,1.27
2018-04-26T22:43:08.107Z,1.15
2018-04-26T22:45:36.997Z,0.80
2018-04-26T22:48:05.895Z,0.70
2018-04-26T22:50:34.887Z,1.10
2018-04-26T22:53:03.772Z,1.12
2018-04-26T22:55:32.670Z,1.10
2018-04-26T22:58:01.561Z,1.20
2018-04-26T23:00:30.442Z,1.00
2018-04-26T23:02:59.575Z,1.15
2018-04-26T23:05:28.466Z,1.40
2018-04-26T23:07:57.363Z,1.20
2018-04-26T23:10:26.262Z,1.70
2018-04-26T23:12:55.179Z,1.27
2018-04-26T23:15:24.235Z,1.00
2018-04-26T23:17:53.130Z,1.55
2018-04-26T23:20:22.015Z,1.27
2018-04-26T23:22:51.047Z,1.15
2018-04-26T23:25:19.931Z,1.25
2018-04-26T23:27:49.075Z,1.30
2018-04-26T23:30:17.959Z,1.23
2018-04-26T23:32:46.843Z,1.33
2018-04-26T23:35:15.794Z,1.25
2018-04-26T23:37:44.683Z,1.58
2018-04-26T23:40:13.566Z,1.33
2018-04-26T23:42:42.524Z,1.58
2018-04-26T23:45:11.404Z,1.20
2018-04-26T23:47:40.291Z,1.20
2018-04-26T23:50:09.262Z,1.35
2018-04-26T23:52:38.199Z,1.98
2018-04-26T23:55:07.092Z,1.30
2018-04-26T23:57:35.995Z,1.20
